sensor_id;sensor_type;location;lat;lon;timestamp;temperature;humidity
13652;DHT22;6899;51.546;6.912;2023-02-15T00:01:54;1.20;99.90
13652;DHT22;6899;51.546;6.912;2023-02-15T00:04:22;1.20;99.90
13652;DHT22;6899;51.546;6.912;2023-02-15T00:06:50;1.10;99.90
13652;DHT22;6899;51.546;6.912;2023-02-15T00:09:16;1.10;99.90
13652;DHT22;6899;51.546;6.912;2023-02-15T00:11:43;1.10;99.90
13652;DHT22;6899;51.546;6.912;2023-02-15T00:14:17;1.10;99.90
13652;DHT22;6899;51.546;6.912;2023-02-15T00:16:45;1.10;99.90
13652;DHT22;6899;51.546;6.912;2023-02-15T00:19:15;1.10;99.90
13652;DHT22;6899;51.546;6.912;2023-02-15T00:21:42;1.00;99.90
13652;DHT22;6899;51.546;6.912;2023-02-15T00:24:14;0.90;99.90
13652;DHT22;6899;51.546;6.912;2023-02-15T00:26:42;0.90;99.90
13652;DHT22;6899;51.546;6.912;2023-02-15T00:29:10;0.70;99.90
13652;DHT22;6899;51.546;6.912;2023-02-15T00:31:37;0.60;99.90
13652;DHT22;6899;51.546;6.912;2023-02-15T00:34:06;0.70;99.90
13652;DHT22;6899;51.546;6.912;2023-02-15T00:36:34;0.70;99.90
13652;DHT22;6899;51.546;6.912;2023-02-15T00:39:01;0.70;99.90
13652;DHT22;6899;51.546;6.912;2023-02-15T00:41:28;0.80;99.90
13652;DHT22;6899;51.546;6.912;2023-02-15T00:43:54;0.70;99.90
13652;DHT22;6899;51.546;6.912;2023-02-15T00:46:21;0.50;99.90
13652;DHT22;6899;51.546;6.912;2023-02-15T00:48:49;0.50;99.90
13652;DHT22;6899;51.546;6.912;2023-02-15T00:51:16;0.60;99.90
13652;DHT22;6899;51.546;6.912;2023-02-15T00:53:44;0.60;99.90
13652;DHT22;6899;51.546;6.912;2023-02-15T00:56:11;0.50;99.90
13652;DHT22;6899;51.546;6.912;2023-02-15T00:58:38;0.70;99.90
13652;DHT22;6899;51.546;6.912;2023-02-15T01:01:07;0.70;99.90
13652;DHT22;6899;51.546;6.912;2023-02-15T01:03:34;0.50;99.90
13652;DHT22;6899;51.546;6.912;2023-02-15T01:06:01;0.30;99.90
13652;DHT22;6899;51.546;6.912;2023-02-15T01:08:28;0.20;99.90
13652;DHT22;6899;51.546;6.912;2023-02-15T01:10:56;0.20;99.90
13652;DHT22;6899;51.546;6.912;2023-02-15T01:13:23;0.00;99.90
13652;DHT22;6899;51.546;6.912;2023-02-15T01:15:53;0.00;99.90
13652;DHT22;6899;51.546;6.912;2023-02-15T01:18:20;-0.10;99.90
13652;DHT22;6899;51.546;6.912;2023-02-15T01:20:47;0.00;99.90
13652;DHT22;6899;51.546;6.912;2023-02-15T01:23:18;0.00;99.90
13652;DHT22;6899;51.546;6.912;2023-02-15T01:25:47;-0.10;99.90
13652;DHT22;6899;51.546;6.912;2023-02-15T01:28:18;0.10;99.90
13652;DHT22;6899;51.546;6.912;2023-02-15T01:30:45;0.20;99.90
13652;DHT22;6899;51.546;6.912;2023-02-15T01:33:12;0.20;99.90
13652;DHT22;6899;51.546;6.912;2023-02-15T01:35:43;0.10;99.90
13652;DHT22;6899;51.546;6.912;2023-02-15T01:38:14;0.20;99.90
13652;DHT22;6899;51.546;6.912;2023-02-15T01:40:43;0.30;99.90
13652;DHT22;6899;51.546;6.912;2023-02-15T01:43:11;0.20;99.90
13652;DHT22;6899;51.546;6.912;2023-02-15T01:45:39;0.10;99.90
13652;DHT22;6899;51.546;6.912;2023-02-15T01:48:19;0.00;99.90
13652;DHT22;6899;51.546;6.912;2023-02-15T01:50:50;-0.10;99.90
13652;DHT22;6899;51.546;6.912;2023-02-15T01:53:24;-0.10;99.90
13652;DHT22;6899;51.546;6.912;2023-02-15T01:55:55;-0.10;99.90
13652;DHT22;6899;51.546;6.912;2023-02-15T01:58:26;0.10;99.90
13652;DHT22;6899;51.546;6.912;2023-02-15T02:00:57;0.10;99.90
13652;DHT22;6899;51.546;6.912;2023-02-15T02:03:34;0.10;99.90
13652;DHT22;6899;51.546;6.912;2023-02-15T02:06:03;0.00;99.90
13652;DHT22;6899;51.546;6.912;2023-02-15T02:08:30;0.00;99.90
13652;DHT22;6899;51.546;6.912;2023-02-15T02:10:58;0.10;99.90
13652;DHT22;6899;51.546;6.912;2023-02-15T02:13:24;0.10;99.90
13652;DHT22;6899;51.546;6.912;2023-02-15T02:15:57;0.20;99.90
13652;DHT22;6899;51.546;6.912;2023-02-15T02:18:35;0.20;99.90
13652;DHT22;6899;51.546;6.912;2023-02-15T02:21:29;0.20;99.90
13652;DHT22;6899;51.546;6.912;2023-02-15T02:27:23;0.10;99.90
13652;DHT22;6899;51.546;6.912;2023-02-15T02:36:08;0.10;99.90
13652;DHT22;6899;51.546;6.912;2023-02-15T02:38:45;0.10;99.90
13652;DHT22;6899;51.546;6.912;2023-02-15T02:41:20;0.10;99.90
13652;DHT22;6899;51.546;6.912;2023-02-15T02:43:54;0.20;99.90
13652;DHT22;6899;51.546;6.912;2023-02-15T02:46:26;0.10;99.90
13652;DHT22;6899;51.546;6.912;2023-02-15T02:48:54;0.10;99.90
13652;DHT22;6899;51.546;6.912;2023-02-15T02:51:23;0.10;99.90
13652;DHT22;6899;51.546;6.912;2023-02-15T02:53:52;-0.10;99.90
13652;DHT22;6899;51.546;6.912;2023-02-15T02:56:24;-0.10;99.90
13652;DHT22;6899;51.546;6.912;2023-02-15T02:58:58;-0.20;99.90
13652;DHT22;6899;51.546;6.912;2023-02-15T03:01:30;-0.20;99.90
13652;DHT22;6899;51.546;6.912;2023-02-15T03:04:00;-0.20;99.90
13652;DHT22;6899;51.546;6.912;2023-02-15T03:06:35;-0.20;99.90
13652;DHT22;6899;51.546;6.912;2023-02-15T03:09:06;-0.30;99.90
13652;DHT22;6899;51.546;6.912;2023-02-15T03:11:41;-0.20;99.90
13652;DHT22;6899;51.546;6.912;2023-02-15T03:14:09;-0.20;99.90
13652;DHT22;6899;51.546;6.912;2023-02-15T03:16:37;-0.30;99.90
13652;DHT22;6899;51.546;6.912;2023-02-15T03:19:09;-0.30;99.90
13652;DHT22;6899;51.546;6.912;2023-02-15T03:21:40;-0.40;99.90
13652;DHT22;6899;51.546;6.912;2023-02-15T03:24:10;-0.40;99.90
13652;DHT22;6899;51.546;6.912;2023-02-15T03:26:39;-0.50;99.90
13652;DHT22;6899;51.546;6.912;2023-02-15T03:29:10;-0.50;99.90
13652;DHT22;6899;51.546;6.912;2023-02-15T03:31:41;-0.40;99.90
13652;DHT22;6899;51.546;6.912;2023-02-15T03:34:10;-0.30;99.90
13652;DHT22;6899;51.546;6.912;2023-02-15T03:36:44;-0.40;99.90
13652;DHT22;6899;51.546;6.912;2023-02-15T03:39:18;-0.40;99.90
13652;DHT22;6899;51.546;6.912;2023-02-15T03:41:50;-0.50;99.90
13652;DHT22;6899;51.546;6.912;2023-02-15T03:44:25;-0.50;99.90
13652;DHT22;6899;51.546;6.912;2023-02-15T03:46:58;-0.40;99.90
13652;DHT22;6899;51.546;6.912;2023-02-15T03:49:30;-0.40;99.90
13652;DHT22;6899;51.546;6.912;2023-02-15T03:52:02;-0.50;99.90
13652;DHT22;6899;51.546;6.912;2023-02-15T03:54:32;-0.60;99.90
13652;DHT22;6899;51.546;6.912;2023-02-15T03:57:15;-0.60;99.90
13652;DHT22;6899;51.546;6.912;2023-02-15T04:00:02;-0.60;99.90
13652;DHT22;6899;51.546;6.912;2023-02-15T04:03:09;-0.70;99.90
13652;DHT22;6899;51.546;6.912;2023-02-15T04:05:38;-0.70;99.90
13652;DHT22;6899;51.546;6.912;2023-02-15T04:08:07;-0.70;99.90
13652;DHT22;6899;51.546;6.912;2023-02-15T04:10:34;-0.60;99.90
13652;DHT22;6899;51.546;6.912;2023-02-15T04:13:18;-0.60;99.90
13652;DHT22;6899;51.546;6.912;2023-02-15T04:15:45;-0.60;99.90
13652;DHT22;6899;51.546;6.912;2023-02-15T04:18:30;-0.50;99.90
13652;DHT22;6899;51.546;6.912;2023-02-15T04:21:15;-0.50;99.90
13652;DHT22;6899;51.546;6.912;2023-02-15T04:24:01;-0.50;99.90
13652;DHT22;6899;51.546;6.912;2023-02-15T04:26:45;-0.60;99.90
13652;DHT22;6899;51.546;6.912;2023-02-15T04:29:13;-0.50;99.90
13652;DHT22;6899;51.546;6.912;2023-02-15T04:31:41;-0.40;99.90
13652;DHT22;6899;51.546;6.912;2023-02-15T04:34:09;-0.40;99.90
13652;DHT22;6899;51.546;6.912;2023-02-15T04:36:36;-0.50;99.90
13652;DHT22;6899;51.546;6.912;2023-02-15T04:39:05;-0.50;99.90
13652;DHT22;6899;51.546;6.912;2023-02-15T04:41:32;-0.40;99.90
13652;DHT22;6899;51.546;6.912;2023-02-15T04:43:59;-0.50;99.90
13652;DHT22;6899;51.546;6.912;2023-02-15T04:46:27;-0.50;99.90
13652;DHT22;6899;51.546;6.912;2023-02-15T04:48:54;-0.50;99.90
13652;DHT22;6899;51.546;6.912;2023-02-15T04:51:21;-0.50;99.90
13652;DHT22;6899;51.546;6.912;2023-02-15T04:53:48;-0.50;99.90
13652;DHT22;6899;51.546;6.912;2023-02-15T04:56:19;-0.60;99.90
13652;DHT22;6899;51.546;6.912;2023-02-15T04:58:46;-0.70;99.90
13652;DHT22;6899;51.546;6.912;2023-02-15T05:01:13;-0.60;99.90
13652;DHT22;6899;51.546;6.912;2023-02-15T05:03:40;-0.60;99.90
13652;DHT22;6899;51.546;6.912;2023-02-15T05:06:06;-0.70;99.90
13652;DHT22;6899;51.546;6.912;2023-02-15T05:08:33;-0.60;99.90
13652;DHT22;6899;51.546;6.912;2023-02-15T05:11:00;-0.70;99.90
13652;DHT22;6899;51.546;6.912;2023-02-15T05:13:28;-0.80;99.90
13652;DHT22;6899;51.546;6.912;2023-02-15T05:15:55;-0.80;99.90
13652;DHT22;6899;51.546;6.912;2023-02-15T05:18:22;-0.90;99.90
13652;DHT22;6899;51.546;6.912;2023-02-15T05:20:49;-0.90;99.90
13652;DHT22;6899;51.546;6.912;2023-02-15T05:23:16;-0.90;99.90
13652;DHT22;6899;51.546;6.912;2023-02-15T05:25:46;-0.90;99.90
13652;DHT22;6899;51.546;6.912;2023-02-15T05:28:32;-0.90;99.90
13652;DHT22;6899;51.546;6.912;2023-02-15T05:31:03;-0.80;99.90
13652;DHT22;6899;51.546;6.912;2023-02-15T05:33:30;-0.90;99.90
13652;DHT22;6899;51.546;6.912;2023-02-15T05:35:57;-1.00;99.90
13652;DHT22;6899;51.546;6.912;2023-02-15T05:38:24;-1.00;99.90
13652;DHT22;6899;51.546;6.912;2023-02-15T05:40:54;-0.90;99.90
13652;DHT22;6899;51.546;6.912;2023-02-15T05:43:21;-0.90;99.90
13652;DHT22;6899;51.546;6.912;2023-02-15T05:45:51;-0.80;99.90
13652;DHT22;6899;51.546;6.912;2023-02-15T05:48:19;-0.80;99.90
13652;DHT22;6899;51.546;6.912;2023-02-15T05:50:46;-0.90;99.90
13652;DHT22;6899;51.546;6.912;2023-02-15T05:53:13;-0.90;99.90
13652;DHT22;6899;51.546;6.912;2023-02-15T05:55:40;-0.90;99.90
13652;DHT22;6899;51.546;6.912;2023-02-15T05:58:07;-0.90;99.90
13652;DHT22;6899;51.546;6.912;2023-02-15T06:00:34;-0.90;99.90
13652;DHT22;6899;51.546;6.912;2023-02-15T06:03:02;-0.90;99.90
13652;DHT22;6899;51.546;6.912;2023-02-15T06:05:29;-0.90;99.90
13652;DHT22;6899;51.546;6.912;2023-02-15T06:07:56;-0.90;99.90
13652;DHT22;6899;51.546;6.912;2023-02-15T06:10:23;-1.00;99.90
13652;DHT22;6899;51.546;6.912;2023-02-15T06:12:50;-1.00;99.90
13652;DHT22;6899;51.546;6.912;2023-02-15T06:15:17;-1.00;99.90
13652;DHT22;6899;51.546;6.912;2023-02-15T06:17:44;-1.00;99.90
13652;DHT22;6899;51.546;6.912;2023-02-15T06:20:12;-1.00;99.90
13652;DHT22;6899;51.546;6.912;2023-02-15T06:22:39;-1.00;99.90
13652;DHT22;6899;51.546;6.912;2023-02-15T06:25:06;-1.00;99.90
13652;DHT22;6899;51.546;6.912;2023-02-15T06:27:35;-1.00;99.90
13652;DHT22;6899;51.546;6.912;2023-02-15T06:30:03;-1.00;99.90
13652;DHT22;6899;51.546;6.912;2023-02-15T06:32:30;-0.90;99.90
13652;DHT22;6899;51.546;6.912;2023-02-15T06:34:56;-0.90;99.90
13652;DHT22;6899;51.546;6.912;2023-02-15T06:37:24;-0.90;99.90
13652;DHT22;6899;51.546;6.912;2023-02-15T06:39:51;-1.00;99.90
13652;DHT22;6899;51.546;6.912;2023-02-15T06:42:18;-1.00;99.90
13652;DHT22;6899;51.546;6.912;2023-02-15T06:44:48;-1.00;99.90
13652;DHT22;6899;51.546;6.912;2023-02-15T06:47:14;-1.00;99.90
13652;DHT22;6899;51.546;6.912;2023-02-15T06:49:41;-1.00;99.90
13652;DHT22;6899;51.546;6.912;2023-02-15T06:52:08;-1.00;99.90
13652;DHT22;6899;51.546;6.912;2023-02-15T06:54:36;-0.90;99.90
13652;DHT22;6899;51.546;6.912;2023-02-15T06:57:03;-1.00;99.90
13652;DHT22;6899;51.546;6.912;2023-02-15T06:59:30;-0.90;99.90
13652;DHT22;6899;51.546;6.912;2023-02-15T07:01:56;-0.90;99.90
13652;DHT22;6899;51.546;6.912;2023-02-15T07:04:24;-0.80;99.90
13652;DHT22;6899;51.546;6.912;2023-02-15T07:06:50;-0.80;99.90
13652;DHT22;6899;51.546;6.912;2023-02-15T07:09:17;-0.70;99.90
13652;DHT22;6899;51.546;6.912;2023-02-15T07:11:45;-0.70;99.90
13652;DHT22;6899;51.546;6.912;2023-02-15T07:14:30;-0.70;99.90
13652;DHT22;6899;51.546;6.912;2023-02-15T07:16:57;-0.70;99.90
13652;DHT22;6899;51.546;6.912;2023-02-15T07:19:24;-0.60;99.90
13652;DHT22;6899;51.546;6.912;2023-02-15T07:21:51;-0.60;99.90
13652;DHT22;6899;51.546;6.912;2023-02-15T07:24:19;-0.60;99.90
13652;DHT22;6899;51.546;6.912;2023-02-15T07:26:47;-0.60;99.90
13652;DHT22;6899;51.546;6.912;2023-02-15T07:29:14;-0.50;99.90
13652;DHT22;6899;51.546;6.912;2023-02-15T07:31:41;-0.40;99.90
13652;DHT22;6899;51.546;6.912;2023-02-15T07:34:11;-0.30;99.90
13652;DHT22;6899;51.546;6.912;2023-02-15T07:36:37;-0.30;99.90
13652;DHT22;6899;51.546;6.912;2023-02-15T07:39:04;-0.20;99.90
13652;DHT22;6899;51.546;6.912;2023-02-15T07:41:31;0.00;99.90
13652;DHT22;6899;51.546;6.912;2023-02-15T07:43:59;0.00;99.90
13652;DHT22;6899;51.546;6.912;2023-02-15T07:46:26;0.10;99.90
13652;DHT22;6899;51.546;6.912;2023-02-15T07:48:53;0.30;99.90
13652;DHT22;6899;51.546;6.912;2023-02-15T07:51:20;0.30;99.90
13652;DHT22;6899;51.546;6.912;2023-02-15T07:53:47;0.40;99.90
13652;DHT22;6899;51.546;6.912;2023-02-15T07:56:14;0.50;99.90
13652;DHT22;6899;51.546;6.912;2023-02-15T07:58:41;0.50;99.90
13652;DHT22;6899;51.546;6.912;2023-02-15T08:01:19;0.60;99.90
13652;DHT22;6899;51.546;6.912;2023-02-15T08:03:46;0.70;99.90
13652;DHT22;6899;51.546;6.912;2023-02-15T08:06:13;0.80;99.90
13652;DHT22;6899;51.546;6.912;2023-02-15T08:08:40;0.90;99.90
13652;DHT22;6899;51.546;6.912;2023-02-15T08:11:14;1.00;99.90
13652;DHT22;6899;51.546;6.912;2023-02-15T08:14:00;1.20;99.90
13652;DHT22;6899;51.546;6.912;2023-02-15T08:16:33;1.30;99.90
13652;DHT22;6899;51.546;6.912;2023-02-15T08:19:02;1.40;99.90
13652;DHT22;6899;51.546;6.912;2023-02-15T08:21:29;1.60;99.90
13652;DHT22;6899;51.546;6.912;2023-02-15T08:23:57;1.70;99.90
13652;DHT22;6899;51.546;6.912;2023-02-15T08:26:25;1.90;99.90
13652;DHT22;6899;51.546;6.912;2023-02-15T08:28:53;2.10;99.90
13652;DHT22;6899;51.546;6.912;2023-02-15T08:31:23;2.20;99.90
13652;DHT22;6899;51.546;6.912;2023-02-15T08:33:53;2.40;99.90
13652;DHT22;6899;51.546;6.912;2023-02-15T08:36:22;2.60;99.90
13652;DHT22;6899;51.546;6.912;2023-02-15T08:38:49;2.60;99.90
13652;DHT22;6899;51.546;6.912;2023-02-15T08:41:17;2.80;99.90
13652;DHT22;6899;51.546;6.912;2023-02-15T08:43:47;3.00;99.90
13652;DHT22;6899;51.546;6.912;2023-02-15T08:46:15;3.10;99.90
13652;DHT22;6899;51.546;6.912;2023-02-15T08:48:43;3.20;99.90
13652;DHT22;6899;51.546;6.912;2023-02-15T08:51:13;3.30;99.90
13652;DHT22;6899;51.546;6.912;2023-02-15T08:53:42;3.50;99.90
13652;DHT22;6899;51.546;6.912;2023-02-15T08:56:10;3.60;99.90
13652;DHT22;6899;51.546;6.912;2023-02-15T08:58:38;3.70;99.90
13652;DHT22;6899;51.546;6.912;2023-02-15T09:01:12;3.90;99.90
13652;DHT22;6899;51.546;6.912;2023-02-15T09:03:40;4.00;99.90
13652;DHT22;6899;51.546;6.912;2023-02-15T09:06:06;4.20;99.90
13652;DHT22;6899;51.546;6.912;2023-02-15T09:08:35;4.30;99.90
13652;DHT22;6899;51.546;6.912;2023-02-15T09:11:06;4.40;99.90
13652;DHT22;6899;51.546;6.912;2023-02-15T09:13:33;4.40;99.90
13652;DHT22;6899;51.546;6.912;2023-02-15T09:16:02;4.60;99.90
13652;DHT22;6899;51.546;6.912;2023-02-15T09:18:30;4.70;99.90
13652;DHT22;6899;51.546;6.912;2023-02-15T09:21:03;4.80;99.90
13652;DHT22;6899;51.546;6.912;2023-02-15T09:23:30;4.90;99.90
13652;DHT22;6899;51.546;6.912;2023-02-15T09:26:02;5.10;99.90
13652;DHT22;6899;51.546;6.912;2023-02-15T09:28:29;5.30;99.90
13652;DHT22;6899;51.546;6.912;2023-02-15T09:30:56;5.40;99.90
13652;DHT22;6899;51.546;6.912;2023-02-15T09:33:22;5.40;99.90
13652;DHT22;6899;51.546;6.912;2023-02-15T09:35:50;5.60;99.90
13652;DHT22;6899;51.546;6.912;2023-02-15T09:38:17;5.60;99.90
13652;DHT22;6899;51.546;6.912;2023-02-15T09:40:56;5.80;99.90
13652;DHT22;6899;51.546;6.912;2023-02-15T09:43:32;6.10;99.90
13652;DHT22;6899;51.546;6.912;2023-02-15T09:46:19;6.30;99.90
13652;DHT22;6899;51.546;6.912;2023-02-15T09:48:52;6.60;99.90
13652;DHT22;6899;51.546;6.912;2023-02-15T09:54:38;6.80;99.90
13652;DHT22;6899;51.546;6.912;2023-02-15T09:57:13;7.00;99.90
13652;DHT22;6899;51.546;6.912;2023-02-15T09:59:50;7.40;99.90
13652;DHT22;6899;51.546;6.912;2023-02-15T10:02:29;7.40;99.90
13652;DHT22;6899;51.546;6.912;2023-02-15T10:05:11;7.80;99.90
13652;DHT22;6899;51.546;6.912;2023-02-15T10:07:55;7.80;99.90
13652;DHT22;6899;51.546;6.912;2023-02-15T10:10:32;8.10;99.90
13652;DHT22;6899;51.546;6.912;2023-02-15T10:13:13;8.40;99.90
13652;DHT22;6899;51.546;6.912;2023-02-15T10:15:58;8.30;99.90
13652;DHT22;6899;51.546;6.912;2023-02-15T10:18:43;8.60;99.90
13652;DHT22;6899;51.546;6.912;2023-02-15T10:21:20;8.80;99.90
13652;DHT22;6899;51.546;6.912;2023-02-15T10:24:17;8.90;99.90
13652;DHT22;6899;51.546;6.912;2023-02-15T10:26:48;9.30;99.90
13652;DHT22;6899;51.546;6.912;2023-02-15T10:29:24;9.50;99.90
13652;DHT22;6899;51.546;6.912;2023-02-15T10:32:04;9.50;99.90
13652;DHT22;6899;51.546;6.912;2023-02-15T10:34:37;9.80;99.90
13652;DHT22;6899;51.546;6.912;2023-02-15T10:37:38;10.00;99.90
13652;DHT22;6899;51.546;6.912;2023-02-15T10:40:17;10.00;99.90
13652;DHT22;6899;51.546;6.912;2023-02-15T10:43:07;10.10;99.90
13652;DHT22;6899;51.546;6.912;2023-02-15T10:45:43;10.20;99.90
13652;DHT22;6899;51.546;6.912;2023-02-15T10:51:22;10.50;99.90
13652;DHT22;6899;51.546;6.912;2023-02-15T10:54:05;10.50;99.90
13652;DHT22;6899;51.546;6.912;2023-02-15T10:56:36;10.70;99.90
13652;DHT22;6899;51.546;6.912;2023-02-15T10:59:18;10.80;99.90
13652;DHT22;6899;51.546;6.912;2023-02-15T11:01:52;10.80;99.90
13652;DHT22;6899;51.546;6.912;2023-02-15T11:07:21;10.90;99.90
13652;DHT22;6899;51.546;6.912;2023-02-15T11:09:53;10.80;99.90
13652;DHT22;6899;51.546;6.912;2023-02-15T11:12:25;10.90;99.90
13652;DHT22;6899;51.546;6.912;2023-02-15T11:14:58;11.00;99.90
13652;DHT22;6899;51.546;6.912;2023-02-15T11:17:33;11.20;99.90
13652;DHT22;6899;51.546;6.912;2023-02-15T11:20:08;11.30;99.90
13652;DHT22;6899;51.546;6.912;2023-02-15T11:22:43;11.30;99.90
13652;DHT22;6899;51.546;6.912;2023-02-15T11:25:17;11.30;99.90
13652;DHT22;6899;51.546;6.912;2023-02-15T11:27:46;11.40;99.90
13652;DHT22;6899;51.546;6.912;2023-02-15T11:30:17;11.30;99.90
13652;DHT22;6899;51.546;6.912;2023-02-15T11:32:47;11.50;99.90
13652;DHT22;6899;51.546;6.912;2023-02-15T11:35:22;11.50;99.90
13652;DHT22;6899;51.546;6.912;2023-02-15T11:37:56;11.70;99.90
13652;DHT22;6899;51.546;6.912;2023-02-15T11:40:27;11.80;99.90
13652;DHT22;6899;51.546;6.912;2023-02-15T11:42:56;11.90;99.90
13652;DHT22;6899;51.546;6.912;2023-02-15T11:45:27;12.10;99.90
13652;DHT22;6899;51.546;6.912;2023-02-15T11:47:55;12.20;99.90
13652;DHT22;6899;51.546;6.912;2023-02-15T11:50:24;12.30;98.20
13652;DHT22;6899;51.546;6.912;2023-02-15T11:52:56;12.40;97.70
13652;DHT22;6899;51.546;6.912;2023-02-15T11:55:25;12.40;99.90
13652;DHT22;6899;51.546;6.912;2023-02-15T11:57:57;12.20;93.40
13652;DHT22;6899;51.546;6.912;2023-02-15T12:00:32;12.10;94.10
13652;DHT22;6899;51.546;6.912;2023-02-15T12:03:07;12.20;96.50
13652;DHT22;6899;51.546;6.912;2023-02-15T12:05:37;12.30;94.20
13652;DHT22;6899;51.546;6.912;2023-02-15T12:08:15;12.10;91.50
13652;DHT22;6899;51.546;6.912;2023-02-15T12:10:52;12.10;91.90
13652;DHT22;6899;51.546;6.912;2023-02-15T12:13:22;12.20;91.90
13652;DHT22;6899;51.546;6.912;2023-02-15T12:15:50;12.20;90.20
13652;DHT22;6899;51.546;6.912;2023-02-15T12:18:21;12.30;88.70
13652;DHT22;6899;51.546;6.912;2023-02-15T12:20:50;12.40;88.00
13652;DHT22;6899;51.546;6.912;2023-02-15T12:23:20;12.50;85.90
13652;DHT22;6899;51.546;6.912;2023-02-15T12:25:51;12.60;85.10
13652;DHT22;6899;51.546;6.912;2023-02-15T12:28:24;12.70;84.50
13652;DHT22;6899;51.546;6.912;2023-02-15T12:30:53;12.80;84.50
13652;DHT22;6899;51.546;6.912;2023-02-15T12:33:27;12.90;83.60
13652;DHT22;6899;51.546;6.912;2023-02-15T12:35:59;13.00;81.60
13652;DHT22;6899;51.546;6.912;2023-02-15T12:38:29;13.00;81.70
13652;DHT22;6899;51.546;6.912;2023-02-15T12:41:00;13.10;79.20
13652;DHT22;6899;51.546;6.912;2023-02-15T12:43:31;13.00;79.60
13652;DHT22;6899;51.546;6.912;2023-02-15T12:46:22;13.10;78.80
13652;DHT22;6899;51.546;6.912;2023-02-15T12:49:14;13.00;78.50
13652;DHT22;6899;51.546;6.912;2023-02-15T12:51:46;13.00;77.50
13652;DHT22;6899;51.546;6.912;2023-02-15T12:54:38;13.00;76.60
13652;DHT22;6899;51.546;6.912;2023-02-15T12:57:24;13.10;75.50
13652;DHT22;6899;51.546;6.912;2023-02-15T12:59:54;13.10;75.10
13652;DHT22;6899;51.546;6.912;2023-02-15T13:02:24;13.10;75.50
13652;DHT22;6899;51.546;6.912;2023-02-15T13:04:52;13.10;73.80
13652;DHT22;6899;51.546;6.912;2023-02-15T13:07:20;13.20;76.60
13652;DHT22;6899;51.546;6.912;2023-02-15T13:09:49;13.20;75.20
13652;DHT22;6899;51.546;6.912;2023-02-15T13:12:20;13.30;75.90
13652;DHT22;6899;51.546;6.912;2023-02-15T13:14:48;13.40;74.60
13652;DHT22;6899;51.546;6.912;2023-02-15T13:17:18;13.40;74.70
13652;DHT22;6899;51.546;6.912;2023-02-15T13:19:47;13.40;72.70
13652;DHT22;6899;51.546;6.912;2023-02-15T13:22:17;13.40;70.90
13652;DHT22;6899;51.546;6.912;2023-02-15T13:24:48;13.30;73.20
13652;DHT22;6899;51.546;6.912;2023-02-15T13:27:20;13.50;71.40
13652;DHT22;6899;51.546;6.912;2023-02-15T13:29:50;13.50;70.70
13652;DHT22;6899;51.546;6.912;2023-02-15T13:32:26;13.60;69.70
13652;DHT22;6899;51.546;6.912;2023-02-15T13:34:56;13.70;70.50
13652;DHT22;6899;51.546;6.912;2023-02-15T13:40:24;13.70;68.10
13652;DHT22;6899;51.546;6.912;2023-02-15T13:42:55;13.70;66.30
13652;DHT22;6899;51.546;6.912;2023-02-15T13:45:37;13.60;68.60
13652;DHT22;6899;51.546;6.912;2023-02-15T13:48:14;13.70;66.80
13652;DHT22;6899;51.546;6.912;2023-02-15T13:50:53;13.70;65.90
13652;DHT22;6899;51.546;6.912;2023-02-15T13:53:41;13.70;65.60
13652;DHT22;6899;51.546;6.912;2023-02-15T13:56:21;13.90;66.50
13652;DHT22;6899;51.546;6.912;2023-02-15T13:59:10;13.90;66.60
13652;DHT22;6899;51.546;6.912;2023-02-15T14:01:44;14.00;67.00
13652;DHT22;6899;51.546;6.912;2023-02-15T14:07:25;14.00;67.40
13652;DHT22;6899;51.546;6.912;2023-02-15T14:10:10;14.10;67.40
13652;DHT22;6899;51.546;6.912;2023-02-15T14:12:51;14.20;66.10
13652;DHT22;6899;51.546;6.912;2023-02-15T14:15:28;14.30;66.00
13652;DHT22;6899;51.546;6.912;2023-02-15T14:18:05;14.30;65.00
13652;DHT22;6899;51.546;6.912;2023-02-15T14:20:44;14.30;65.30
13652;DHT22;6899;51.546;6.912;2023-02-15T14:23:25;14.30;65.60
13652;DHT22;6899;51.546;6.912;2023-02-15T14:26:09;14.30;64.90
13652;DHT22;6899;51.546;6.912;2023-02-15T14:28:43;14.30;64.30
13652;DHT22;6899;51.546;6.912;2023-02-15T14:31:13;14.20;64.00
13652;DHT22;6899;51.546;6.912;2023-02-15T14:33:43;14.00;62.30
13652;DHT22;6899;51.546;6.912;2023-02-15T14:36:16;13.80;62.90
13652;DHT22;6899;51.546;6.912;2023-02-15T14:38:53;13.60;62.70
13652;DHT22;6899;51.546;6.912;2023-02-15T14:41:25;13.50;62.90
13652;DHT22;6899;51.546;6.912;2023-02-15T14:44:01;13.40;63.50
13652;DHT22;6899;51.546;6.912;2023-02-15T14:46:36;13.30;64.00
13652;DHT22;6899;51.546;6.912;2023-02-15T14:49:10;13.20;63.20
13652;DHT22;6899;51.546;6.912;2023-02-15T14:51:58;13.10;63.50
13652;DHT22;6899;51.546;6.912;2023-02-15T14:54:53;13.00;63.90
13652;DHT22;6899;51.546;6.912;2023-02-15T14:57:25;12.90;64.00
13652;DHT22;6899;51.546;6.912;2023-02-15T14:59:55;12.90;64.50
13652;DHT22;6899;51.546;6.912;2023-02-15T15:02:29;12.90;64.50
13652;DHT22;6899;51.546;6.912;2023-02-15T15:05:07;12.90;63.80
13652;DHT22;6899;51.546;6.912;2023-02-15T15:07:42;12.90;64.60
13652;DHT22;6899;51.546;6.912;2023-02-15T15:13:54;12.90;64.80
13652;DHT22;6899;51.546;6.912;2023-02-15T15:16:45;12.80;64.50
13652;DHT22;6899;51.546;6.912;2023-02-15T15:22:35;12.60;64.90
13652;DHT22;6899;51.546;6.912;2023-02-15T15:25:08;12.50;66.40
13652;DHT22;6899;51.546;6.912;2023-02-15T15:27:54;12.50;65.80
13652;DHT22;6899;51.546;6.912;2023-02-15T15:33:41;12.40;66.60
13652;DHT22;6899;51.546;6.912;2023-02-15T15:36:34;12.40;66.10
13652;DHT22;6899;51.546;6.912;2023-02-15T15:39:18;12.40;66.30
13652;DHT22;6899;51.546;6.912;2023-02-15T15:41:53;12.40;66.00
13652;DHT22;6899;51.546;6.912;2023-02-15T15:44:48;12.30;67.10
13652;DHT22;6899;51.546;6.912;2023-02-15T15:47:34;12.30;66.90
13652;DHT22;6899;51.546;6.912;2023-02-15T15:50:11;12.20;67.10
13652;DHT22;6899;51.546;6.912;2023-02-15T15:52:40;12.10;68.20
13652;DHT22;6899;51.546;6.912;2023-02-15T15:55:17;12.00;68.50
13652;DHT22;6899;51.546;6.912;2023-02-15T15:57:46;11.90;69.60
13652;DHT22;6899;51.546;6.912;2023-02-15T16:00:36;11.70;70.00
13652;DHT22;6899;51.546;6.912;2023-02-15T16:03:04;11.60;70.70
13652;DHT22;6899;51.546;6.912;2023-02-15T16:05:38;11.40;72.20
13652;DHT22;6899;51.546;6.912;2023-02-15T16:08:05;11.20;72.40
13652;DHT22;6899;51.546;6.912;2023-02-15T16:10:34;11.10;73.70
13652;DHT22;6899;51.546;6.912;2023-02-15T16:13:05;10.90;74.70
13652;DHT22;6899;51.546;6.912;2023-02-15T16:15:35;10.80;76.00
13652;DHT22;6899;51.546;6.912;2023-02-15T16:18:02;10.70;77.20
13652;DHT22;6899;51.546;6.912;2023-02-15T16:20:31;10.60;78.60
13652;DHT22;6899;51.546;6.912;2023-02-15T16:23:14;10.40;78.90
13652;DHT22;6899;51.546;6.912;2023-02-15T16:25:52;10.20;81.10
13652;DHT22;6899;51.546;6.912;2023-02-15T16:28:22;10.00;84.50
13652;DHT22;6899;51.546;6.912;2023-02-15T16:31:04;9.90;85.90
13652;DHT22;6899;51.546;6.912;2023-02-15T16:33:35;9.80;87.90
13652;DHT22;6899;51.546;6.912;2023-02-15T16:36:04;9.60;91.50
13652;DHT22;6899;51.546;6.912;2023-02-15T16:39:04;9.40;94.80
13652;DHT22;6899;51.546;6.912;2023-02-15T16:41:34;9.20;98.40
13652;DHT22;6899;51.546;6.912;2023-02-15T16:44:11;9.00;99.90
13652;DHT22;6899;51.546;6.912;2023-02-15T16:46:41;8.90;99.90
13652;DHT22;6899;51.546;6.912;2023-02-15T16:49:19;8.80;99.90
13652;DHT22;6899;51.546;6.912;2023-02-15T16:51:55;8.70;99.90
13652;DHT22;6899;51.546;6.912;2023-02-15T16:54:23;8.50;99.90
13652;DHT22;6899;51.546;6.912;2023-02-15T16:56:53;8.40;99.90
13652;DHT22;6899;51.546;6.912;2023-02-15T16:59:31;8.40;99.90